Detall de PIREP

Printer-friendly versionPDF version

[2015/04/18 14:32:00]
Flight IATA:CT1003
Pilot Number:012
Company ICAO:CAT
Aircraft Type:F50/A
PAX:50
Aircraft Registration:PAOB
Departing Airport: LXGB
Destination Airport: LPPT
Alternate Airport:LPPR
Online: VATSIM
Route:VJF BEJ ESP
Flight Level:F140
No Slew and time accel
No pause
Crash detect
Detect pilot in Cockpit between each 30 and 45 minutes
14:32 Zero fuel Weight: 37786 Lbs, Fuel Weight: 6455 Lbs
14:32 VATSIM:LXGB 181350Z 19012KT 9999 FEW035 BKN250 22/13 Q1016 NOSIG
14:32 VATSIM:LPPT 181400Z 29010KT 250V320 9999 SCT032 16/09 Q1018
14:32 CPT LPPT
14:37 Parking Brakes off
14:42 Take-off
14:42 Take off Weight: 44153 Lbs
14:42 Wind: 191º @ 012 Knots Heading: 258º
14:42 POS N36º 09´ 09´´ W005º 21´ 11´´
14:42 Gear Up: 121 Knots
14:42 Flaps:1 at 121 Knots
14:43 Flaps:0 at 135 Knots
14:53 TOC
14:53 Fuel Weight: 5980 Lb
14:57 Wind:256º@028 Knots Heading: 315º Ground Speed: 244 Knots Altitude 14094 ft
15:12 Wind:265º@030 Knots Heading: 315º Ground Speed: 240 Knots Altitude 14081 ft
15:27 Wind:272º@031 Knots Heading: 314º Ground Speed: 234 Knots Altitude 14110 ft
15:42 Wind:283º@032 Knots Heading: 337º Ground Speed: 239 Knots Altitude 14107 ft
15:44 TOD
15:44 Fuel Weight: 4349 Lb
15:54 Flaps:1 at 211 Knots
15:54 Gear Down: 205 Knots
15:54 Flaps:2 at 166 Knots
15:55 Flaps:3 at 153 Knots
15:55 Flaps:4 at 135 Knots
15:55 Flaps:5 at 122 Knots
15:55 Flaps:6 at 113 Knots
15:56 TouchDown:Rate -264 ft/min Speed: 96 Knots
15:56 VATSIM:LPPT 181530Z 29010KT 260V340 9999 SCT026 BKN040 15/09 Q1017
15:56 Land
15:56 Wind:282º@010 Knots
15:56 Heading: 205º
15:56 Flight Duration: 01:14
15:56 Landing Weight: 41923 Lbs
15:56 POS N38º 46´ 57´´ W009º 08´ 07´´
16:04 Parking brakes on
16:04 Block to Block Duration: 01:27
16:04 Final Fuel: 4052 Lbls
16:04 Spent Fuel: 2403 Lbls
16:04 Flight Length: 272 NM
16:04 TOD Land Length: 41 NM

Exportar CSV

Powered by Drupal - Modified by Danger4k